Fort Drum, NY

9:05 AM EST on December 28, 2014 (GMT -0500)
Calcium NY | Change Station
CLOSE
Current Station
Personal Weather Station
Location: Calcium, NY
Elevation: 489 ft
Nearby Weather Stations

Elev 489 ft 44.03 °N, 75.83 °W | Updated 2 minutes ago

Mostly Cloudy
Mostly Cloudy
36.5 °F
Feels Like 36 °F
N
2.0
Wind Variable Wind from WSW
Gusts 5.0 mph

Today
High -- | Low -- °F
--% Chance of Precip.
Yesterday
High -- | Low -- °F
Precip. -- in
7:37 AM 4:32 PM
Waxing Crescent, 48% visible
Pressure 29.88 in
Visibility 10.0 miles
Clouds Mostly Cloudy 2200 ft
Overcast 2700 ft
Windchill 36 °F
Dew Point 31 °F
Humidity 80%
Rainfall 0.20 in
Snow Depth Not available.
UV 0 out of 12
Pollen .10 out of 12
Air Quality Not available.
Flu Activity Not available.
METAR KGTB 281358Z AUTO 27006KT 10SM BKN022 OVC027 02/M01 A2987 RMK AO2 SLP119 T00231013

More Conditions Fewer Conditions

Pressure 29.88 in
Visibility 10.0 miles
Clouds Mostly Cloudy 2200 ft
Overcast 2700 ft
Windchill 36 °F
Dew Point 31 °F
Humidity 80%
Rainfall 0.20 in
Snow Depth Not available.
UV 0 out of 12
Pollen .10 out of 12
Air Quality Not available.
Flu Activity Not available.
METAR KGTB 281358Z AUTO 27006KT 10SM BKN022 OVC027 02/M01 A2987 RMK AO2 SLP119 T00231013

More Conditions Fewer Conditions

10-Day Weather Forecast

Almanac

Astronomy

Dec. 28, 2014 Rise Set
Actual Time
Civil Twilight
Nautical Twilight
Astronomical Twilight
Moon
Length of Visible Light
Length of Day
Tomorrow will be .
, % of the Moon is Illuminated

Today's Extremes

State Highs State Lows

Community

WunderPhotos

Upload Photos

1,781,269 photos uploaded!

WunderBlogs® & News

Nearby

Air Quality

  Air Quality AQ Index Pollutant
Not available.

Snow Depth

Station Depth Elevation

Earthquake Activity

City Distance Mag. Time & Date
Minimum magnitude displayed is 2.5.

Coastal Water Temperatures

Place Temperature

Nearby Weather Stations